createdAt,value
2023-03-11T00:01:08.112Z,0.20
2023-03-11T00:03:35.732Z,0.17
2023-03-11T00:06:04.054Z,0.17
2023-03-11T00:08:31.527Z,0.20
2023-03-11T00:11:00.645Z,0.22
2023-03-11T00:13:28.928Z,0.10
2023-03-11T00:15:57.797Z,0.20
2023-03-11T00:18:27.939Z,0.15
2023-03-11T00:20:56.355Z,0.20
2023-03-11T00:23:24.726Z,0.10
2023-03-11T00:25:52.534Z,0.28
2023-03-11T00:28:22.197Z,0.20
2023-03-11T00:30:49.588Z,0.15
2023-03-11T00:33:17.359Z,0.20
2023-03-11T00:35:45.096Z,0.30
2023-03-11T00:38:15.415Z,0.20
2023-03-11T00:40:44.590Z,0.28
2023-03-11T00:43:12.018Z,0.22
2023-03-11T00:45:39.493Z,0.30
2023-03-11T00:48:07.865Z,0.30
2023-03-11T00:50:37.074Z,0.40
2023-03-11T00:53:05.254Z,0.30
2023-03-11T00:55:34.247Z,0.40
2023-03-11T00:58:04.877Z,0.30
2023-03-11T01:00:32.703Z,0.43
2023-03-11T01:03:00.687Z,0.40
2023-03-11T01:05:30.372Z,0.40
2023-03-11T01:07:58.559Z,0.30
2023-03-11T01:10:28.525Z,0.40
2023-03-11T01:12:56.019Z,0.30
2023-03-11T01:15:32.986Z,0.32
2023-03-11T01:18:01.188Z,0.30
2023-03-11T01:20:28.884Z,0.47
2023-03-11T01:22:56.418Z,0.52
2023-03-11T01:25:25.221Z,0.40
2023-03-11T01:27:52.562Z,0.50
2023-03-11T01:30:23.198Z,0.52
2023-03-11T01:32:52.296Z,0.40
2023-03-11T01:35:22.194Z,0.60
2023-03-11T01:37:49.545Z,0.55
2023-03-11T01:40:19.126Z,0.40
2023-03-11T01:42:46.816Z,0.50
2023-03-11T01:45:39.660Z,0.40
2023-03-11T01:48:09.248Z,0.50
2023-03-11T01:50:41.492Z,0.60
2023-03-11T01:53:09.594Z,0.50
2023-03-11T01:55:37.280Z,0.32
2023-03-11T01:58:08.825Z,0.47
2023-03-11T02:00:37.968Z,0.50
2023-03-11T02:03:14.761Z,0.60
2023-03-11T02:05:42.631Z,0.43
2023-03-11T02:08:10.474Z,0.40
2023-03-11T02:10:41.621Z,0.47
2023-03-11T02:13:09.225Z,0.50
2023-03-11T02:15:39.789Z,0.30
2023-03-11T02:18:08.163Z,0.68
2023-03-11T02:20:53.034Z,0.50
2023-03-11T02:23:25.981Z,0.50
2023-03-11T02:26:00.655Z,0.40
2023-03-11T02:28:28.538Z,0.22
2023-03-11T02:30:56.940Z,0.30
2023-03-11T02:33:27.425Z,0.60
2023-03-11T02:35:55.207Z,0.43
2023-03-11T02:38:23.648Z,0.57
2023-03-11T02:40:56.589Z,0.40
2023-03-11T02:43:39.845Z,0.37
2023-03-11T02:46:10.120Z,0.43
2023-03-11T02:48:38.982Z,0.40
2023-03-11T02:51:06.478Z,0.60
2023-03-11T02:53:37.990Z,0.70
2023-03-11T02:56:06.195Z,0.47
2023-03-11T02:58:33.912Z,0.40
2023-03-11T03:01:01.375Z,0.52
2023-03-11T03:03:29.109Z,0.62
2023-03-11T03:05:56.505Z,0.20
2023-03-11T03:08:23.922Z,0.70
2023-03-11T03:10:51.678Z,0.43
2023-03-11T03:13:19.233Z,0.80
2023-03-11T03:15:46.665Z,0.40
2023-03-11T03:18:14.374Z,0.55
2023-03-11T03:20:41.896Z,0.40
2023-03-11T03:23:09.367Z,0.73
2023-03-11T03:25:37.368Z,0.40
2023-03-11T03:28:05.207Z,0.40
2023-03-11T03:30:33.641Z,0.85
2023-03-11T03:33:01.277Z,0.40
2023-03-11T03:35:29.716Z,0.45
2023-03-11T03:37:57.484Z,0.50
2023-03-11T03:40:25.287Z,0.50
2023-03-11T03:42:52.986Z,0.30
2023-03-11T03:45:20.701Z,0.30
2023-03-11T03:47:48.877Z,0.40
2023-03-11T03:50:17.688Z,0.30
2023-03-11T03:52:45.638Z,0.32
2023-03-11T03:55:13.453Z,0.40
2023-03-11T03:57:40.953Z,0.40
2023-03-11T04:00:10.408Z,0.30
2023-03-11T04:05:09.418Z,0.40
2023-03-11T04:07:37.828Z,0.30
2023-03-11T04:10:06.422Z,0.30
2023-03-11T04:12:34.591Z,0.30
2023-03-11T04:15:02.275Z,0.47
2023-03-11T04:17:29.881Z,0.43
2023-03-11T04:19:57.569Z,0.50
2023-03-11T04:22:25.325Z,0.45
2023-03-11T04:24:52.896Z,0.50
2023-03-11T04:27:20.661Z,0.30
2023-03-11T04:29:48.358Z,0.55
2023-03-11T04:32:16.089Z,0.47
2023-03-11T04:34:44.752Z,0.50
2023-03-11T04:37:13.911Z,0.50
2023-03-11T04:39:41.802Z,0.40
2023-03-11T04:42:09.678Z,0.65
2023-03-11T04:44:37.673Z,1.30
2023-03-11T04:47:05.832Z,1.35
2023-03-11T04:49:34.047Z,2.20
2023-03-11T04:52:01.781Z,1.05
2023-03-11T04:54:29.449Z,1.00
2023-03-11T04:56:57.117Z,0.52
2023-03-11T04:59:25.128Z,0.80
2023-03-11T05:01:52.795Z,1.05
2023-03-11T05:04:20.830Z,1.12
2023-03-11T05:06:51.215Z,1.33
2023-03-11T05:09:18.842Z,1.42
2023-03-11T05:11:46.656Z,1.98
2023-03-11T05:14:14.845Z,3.00
2023-03-11T05:16:42.319Z,2.12
2023-03-11T05:19:29.423Z,3.22
2023-03-11T05:21:57.607Z,2.42
2023-03-11T05:24:28.785Z,2.95
2023-03-11T05:26:56.781Z,2.30
2023-03-11T05:29:25.152Z,2.97
2023-03-11T05:31:53.657Z,3.35
2023-03-11T05:34:21.455Z,1.83
2023-03-11T05:36:49.013Z,1.75
2023-03-11T05:39:17.255Z,2.05
2023-03-11T05:41:45.050Z,1.27
2023-03-11T05:44:12.524Z,1.58
2023-03-11T05:46:40.881Z,1.02
2023-03-11T05:49:08.233Z,1.10
2023-03-11T05:51:36.596Z,0.95
2023-03-11T05:54:04.371Z,0.98
2023-03-11T05:56:33.749Z,1.40
2023-03-11T05:59:01.279Z,0.90
2023-03-11T06:01:29.359Z,0.90
2023-03-11T06:03:57.179Z,0.77
2023-03-11T06:06:24.666Z,0.55
2023-03-11T06:08:52.161Z,1.00
2023-03-11T06:11:20.587Z,1.02
2023-03-11T06:13:48.073Z,0.60
2023-03-11T06:16:15.625Z,0.80
2023-03-11T06:18:43.457Z,0.50
2023-03-11T06:21:17.096Z,0.60
2023-03-11T06:23:45.013Z,0.70
2023-03-11T06:26:15.104Z,0.50
2023-03-11T06:28:43.803Z,0.50
2023-03-11T06:31:14.786Z,0.60
2023-03-11T06:33:42.259Z,0.37
2023-03-11T06:36:11.113Z,0.77
2023-03-11T06:38:38.804Z,0.55
2023-03-11T06:41:07.166Z,0.52
2023-03-11T06:43:36.133Z,0.70
2023-03-11T06:46:11.768Z,0.40
2023-03-11T06:48:39.444Z,0.40
2023-03-11T06:51:07.526Z,0.60
2023-03-11T06:53:34.968Z,0.70
2023-03-11T06:56:08.115Z,0.57
2023-03-11T06:58:38.504Z,0.50
2023-03-11T07:01:14.992Z,0.40
2023-03-11T07:03:43.357Z,0.43
2023-03-11T07:06:16.509Z,0.52
2023-03-11T07:08:46.616Z,0.50
2023-03-11T07:11:15.487Z,0.50
2023-03-11T07:13:43.432Z,0.30
2023-03-11T07:16:19.473Z,0.60
2023-03-11T07:18:49.410Z,0.60
2023-03-11T07:21:21.215Z,0.30
2023-03-11T07:23:51.886Z,0.43
2023-03-11T07:26:20.132Z,0.50
2023-03-11T07:28:49.376Z,0.60
2023-03-11T07:31:19.725Z,0.30
2023-03-11T07:33:47.571Z,0.65
2023-03-11T07:36:20.019Z,0.62
2023-03-11T07:38:47.820Z,0.47
2023-03-11T07:41:16.180Z,0.40
2023-03-11T07:43:44.702Z,0.40
2023-03-11T07:46:16.459Z,0.70
2023-03-11T07:48:44.505Z,0.47
2023-03-11T07:51:14.726Z,0.40
2023-03-11T07:53:42.485Z,0.70
2023-03-11T07:56:11.526Z,1.05
2023-03-11T07:58:39.964Z,0.82
2023-03-11T08:01:10.609Z,0.70
2023-03-11T08:03:39.163Z,0.60
2023-03-11T08:06:17.320Z,0.50
2023-03-11T08:08:44.943Z,0.52
2023-03-11T08:11:13.543Z,0.73
2023-03-11T08:13:41.963Z,0.45
2023-03-11T08:16:11.148Z,0.60
2023-03-11T08:18:38.667Z,0.75
2023-03-11T08:21:07.303Z,0.40
2023-03-11T08:23:35.453Z,0.70
2023-03-11T08:26:07.620Z,0.60
2023-03-11T08:31:02.857Z,0.68
2023-03-11T08:33:30.235Z,0.70
2023-03-11T08:35:58.044Z,0.60
2023-03-11T08:38:25.629Z,0.93
2023-03-11T08:40:53.246Z,0.80
2023-03-11T08:43:20.911Z,0.57
2023-03-11T08:45:48.452Z,0.60
2023-03-11T08:48:15.966Z,0.40
2023-03-11T08:50:53.357Z,0.60
2023-03-11T08:53:22.836Z,0.40
2023-03-11T08:55:51.689Z,0.40
2023-03-11T08:58:19.871Z,0.90
2023-03-11T09:00:47.527Z,0.50
2023-03-11T09:03:15.262Z,0.52
2023-03-11T09:05:42.662Z,0.55
2023-03-11T09:08:10.076Z,1.00
2023-03-11T09:10:37.700Z,0.60
2023-03-11T09:13:05.023Z,0.73
2023-03-11T09:15:32.518Z,0.60
2023-03-11T09:18:00.150Z,0.70
2023-03-11T09:20:27.548Z,0.75
2023-03-11T09:22:55.007Z,0.80
2023-03-11T09:25:22.702Z,0.98
2023-03-11T09:27:50.152Z,0.90
2023-03-11T09:30:17.733Z,0.95
2023-03-11T09:32:45.399Z,0.80
2023-03-11T09:35:13.006Z,1.40
2023-03-11T09:37:40.432Z,0.80
2023-03-11T09:40:09.046Z,0.45
2023-03-11T09:42:45.962Z,0.60
2023-03-11T09:45:20.068Z,0.52
2023-03-11T09:48:16.686Z,0.68
2023-03-11T09:50:51.276Z,0.73
2023-03-11T09:53:34.295Z,1.23
2023-03-11T09:56:06.683Z,0.55
2023-03-11T09:58:48.998Z,0.60
2023-03-11T10:03:45.762Z,0.32
2023-03-11T10:06:25.494Z,0.50
2023-03-11T10:09:05.147Z,0.60
2023-03-11T10:11:46.969Z,0.73
2023-03-11T10:14:20.128Z,0.65
2023-03-11T10:16:53.408Z,0.43
2023-03-11T10:19:33.345Z,0.55
2023-03-11T10:22:16.760Z,0.43
2023-03-11T10:24:52.880Z,0.47
2023-03-11T10:27:24.334Z,0.62
2023-03-11T10:30:18.339Z,0.50
2023-03-11T10:33:00.122Z,0.88
2023-03-11T10:35:37.228Z,0.57
2023-03-11T10:38:21.308Z,0.70
2023-03-11T10:40:51.549Z,0.55
2023-03-11T10:43:24.491Z,0.50
2023-03-11T10:45:52.551Z,0.70
2023-03-11T10:48:21.036Z,0.60
2023-03-11T10:50:59.017Z,0.70
2023-03-11T10:53:27.061Z,0.60
2023-03-11T10:55:57.010Z,0.77
2023-03-11T10:58:29.641Z,0.73
2023-03-11T11:01:17.332Z,0.80
2023-03-11T11:03:50.731Z,0.80
2023-03-11T11:06:33.636Z,1.30
2023-03-11T11:09:21.020Z,0.82
2023-03-11T11:12:05.792Z,0.50
2023-03-11T11:14:44.743Z,1.35
2023-03-11T11:17:23.567Z,0.70
2023-03-11T11:19:51.535Z,0.60
2023-03-11T11:22:21.190Z,0.60
2023-03-11T11:24:51.368Z,0.65
2023-03-11T11:27:20.343Z,0.80
2023-03-11T11:29:49.259Z,0.65
2023-03-11T11:32:20.878Z,0.88
2023-03-11T11:35:15.503Z,1.10
2023-03-11T11:37:46.463Z,0.70
2023-03-11T11:40:14.322Z,0.70
2023-03-11T11:42:44.852Z,0.62
2023-03-11T11:45:16.281Z,0.40
2023-03-11T11:47:47.540Z,0.85
2023-03-11T11:50:23.855Z,0.98
2023-03-11T11:52:57.247Z,0.65
2023-03-11T11:55:27.073Z,0.65
2023-03-11T11:57:54.791Z,0.80
2023-03-11T12:00:25.883Z,2.35
2023-03-11T12:03:13.426Z,0.62
2023-03-11T12:05:52.447Z,0.52
2023-03-11T12:08:43.057Z,0.70
2023-03-11T12:11:27.248Z,0.85
2023-03-11T12:14:21.225Z,1.12
2023-03-11T12:16:56.988Z,0.88
2023-03-11T12:19:46.564Z,0.98
2023-03-11T12:22:34.953Z,0.85
2023-03-11T12:25:38.100Z,0.95
2023-03-11T12:28:22.324Z,1.67
2023-03-11T12:30:53.610Z,2.95
2023-03-11T12:33:55.589Z,1.10
2023-03-11T12:36:32.099Z,1.27
2023-03-11T12:39:01.422Z,1.25
2023-03-11T12:41:42.018Z,1.00
2023-03-11T12:44:29.686Z,0.98
2023-03-11T12:47:00.087Z,0.90
2023-03-11T12:49:35.900Z,1.12
2023-03-11T12:52:15.983Z,0.82
2023-03-11T12:54:44.912Z,1.10
2023-03-11T12:58:02.983Z,1.10
2023-03-11T13:00:45.354Z,1.30
2023-03-11T13:03:36.148Z,0.88
2023-03-11T13:06:34.507Z,0.90
2023-03-11T13:09:02.311Z,0.88
2023-03-11T13:11:36.132Z,1.10
2023-03-11T13:14:28.484Z,0.90
2023-03-11T13:16:57.513Z,1.53
2023-03-11T13:19:35.528Z,1.20
2023-03-11T13:22:05.305Z,1.37
2023-03-11T13:24:32.893Z,1.33
2023-03-11T13:27:01.765Z,1.45
2023-03-11T13:29:49.077Z,1.00
2023-03-11T13:32:17.112Z,1.50
2023-03-11T13:35:22.268Z,1.20
2023-03-11T13:38:11.160Z,0.80
2023-03-11T13:40:39.873Z,0.95
2023-03-11T13:43:17.616Z,0.90
2023-03-11T13:45:52.670Z,1.30
2023-03-11T13:48:26.160Z,1.20
2023-03-11T13:50:59.386Z,1.25
2023-03-11T13:53:34.758Z,1.15
2023-03-11T13:56:02.217Z,0.68
2023-03-11T13:58:32.920Z,1.20
2023-03-11T14:01:01.888Z,0.80
2023-03-11T14:03:34.857Z,2.10
2023-03-11T14:06:05.293Z,0.80
2023-03-11T14:08:35.132Z,0.80
2023-03-11T14:11:09.741Z,0.82
2023-03-11T14:13:42.407Z,0.80
2023-03-11T14:19:05.150Z,0.80
2023-03-11T14:21:33.653Z,0.80
2023-03-11T14:24:02.618Z,1.00
2023-03-11T14:26:34.480Z,0.85
2023-03-11T14:29:09.343Z,0.90
2023-03-11T14:31:38.705Z,0.80
2023-03-11T14:34:20.673Z,1.00
2023-03-11T14:36:51.034Z,0.80
2023-03-11T14:39:30.724Z,0.98
2023-03-11T14:42:18.709Z,0.90
2023-03-11T14:44:55.559Z,1.00
2023-03-11T14:47:30.299Z,1.10
2023-03-11T14:49:58.574Z,0.90
2023-03-11T14:52:37.324Z,1.05
2023-03-11T14:55:14.673Z,1.20
2023-03-11T14:57:49.585Z,0.90
2023-03-11T15:00:25.929Z,1.00
2023-03-11T15:03:04.250Z,1.15
2023-03-11T15:05:38.749Z,1.12
2023-03-11T15:08:07.437Z,1.20
2023-03-11T15:10:36.863Z,1.00
2023-03-11T15:13:10.944Z,1.10
2023-03-11T15:15:38.628Z,1.23
2023-03-11T15:18:20.454Z,1.00
2023-03-11T15:21:01.692Z,1.12
2023-03-11T15:23:29.049Z,1.37
2023-03-11T15:25:56.697Z,2.05
2023-03-11T15:28:34.867Z,0.95
2023-03-11T15:31:38.088Z,1.10
2023-03-11T15:34:10.846Z,1.37
2023-03-11T15:36:43.761Z,1.00
2023-03-11T15:39:27.737Z,1.40
2023-03-11T15:42:01.921Z,2.00
2023-03-11T15:44:36.193Z,1.20
2023-03-11T15:47:04.378Z,1.40
2023-03-11T15:49:31.760Z,1.92
2023-03-11T15:51:59.956Z,1.40
2023-03-11T15:54:28.387Z,1.83
2023-03-11T15:56:58.016Z,1.35
2023-03-11T15:59:25.644Z,1.40
2023-03-11T16:01:53.418Z,1.23
2023-03-11T16:04:21.911Z,0.70
2023-03-11T16:06:59.413Z,1.27
2023-03-11T16:09:34.510Z,1.77
2023-03-11T16:12:02.599Z,1.20
2023-03-11T16:14:30.056Z,1.20
2023-03-11T16:16:57.668Z,0.90
2023-03-11T16:19:25.027Z,1.25
2023-03-11T16:21:52.420Z,1.50
2023-03-11T16:24:22.798Z,1.17
2023-03-11T16:26:52.205Z,0.98
2023-03-11T16:29:20.326Z,1.23
2023-03-11T16:31:49.230Z,1.52
2023-03-11T16:34:16.627Z,1.20
2023-03-11T16:36:44.326Z,1.30
2023-03-11T16:39:11.740Z,2.12
2023-03-11T16:41:44.126Z,1.67
2023-03-11T16:44:11.971Z,1.35
2023-03-11T16:46:39.446Z,1.50
2023-03-11T16:49:06.893Z,1.10
2023-03-11T16:51:34.565Z,1.25
2023-03-11T16:54:02.191Z,2.00
2023-03-11T16:56:29.818Z,1.73
2023-03-11T16:58:57.544Z,1.62
2023-03-11T17:01:25.003Z,1.40
2023-03-11T17:03:52.992Z,2.15
2023-03-11T17:06:21.340Z,1.52
2023-03-11T17:08:49.468Z,1.40
2023-03-11T17:11:18.978Z,1.50
2023-03-11T17:13:46.707Z,1.50
2023-03-11T17:16:14.309Z,1.80
2023-03-11T17:18:42.000Z,1.70
2023-03-11T17:21:12.265Z,1.45
2023-03-11T17:23:39.743Z,1.70
2023-03-11T17:26:16.102Z,1.50
2023-03-11T17:28:44.519Z,1.35
2023-03-11T17:31:15.432Z,1.27
2023-03-11T17:33:43.024Z,2.12
2023-03-11T17:36:13.507Z,1.60
2023-03-11T17:38:40.950Z,1.80
2023-03-11T17:41:14.888Z,1.77
2023-03-11T17:43:43.121Z,1.20
2023-03-11T17:46:16.547Z,3.78
2023-03-11T17:48:45.783Z,1.55
2023-03-11T17:51:15.408Z,2.30
2023-03-11T17:53:45.770Z,2.78
2023-03-11T17:56:15.647Z,2.55
2023-03-11T17:58:43.114Z,1.90
2023-03-11T18:01:19.456Z,1.50
2023-03-11T18:03:47.432Z,1.20
2023-03-11T18:06:15.016Z,1.58
2023-03-11T18:08:42.732Z,1.52
2023-03-11T18:11:12.866Z,1.45
2023-03-11T18:13:40.676Z,1.55
2023-03-11T18:16:19.025Z,1.50
2023-03-11T18:18:47.408Z,1.30
2023-03-11T18:21:20.701Z,1.73
2023-03-11T18:23:48.878Z,1.45
2023-03-11T18:26:18.137Z,1.73
2023-03-11T18:28:45.829Z,1.70
2023-03-11T18:31:18.899Z,1.58
2023-03-11T18:33:49.027Z,1.60
2023-03-11T18:36:22.223Z,1.70
2023-03-11T18:38:50.628Z,1.60
2023-03-11T18:41:18.538Z,1.60
2023-03-11T18:43:45.953Z,1.55
2023-03-11T18:46:15.032Z,1.50
2023-03-11T18:48:43.076Z,1.90
2023-03-11T18:51:11.144Z,1.85
2023-03-11T18:53:39.490Z,1.67
2023-03-11T18:56:12.217Z,1.75
2023-03-11T18:58:39.716Z,1.77
2023-03-11T19:01:09.476Z,1.75
2023-03-11T19:03:38.211Z,2.12
2023-03-11T19:06:06.754Z,2.03
2023-03-11T19:08:34.327Z,1.98
2023-03-11T19:11:08.828Z,1.85
2023-03-11T19:13:46.672Z,1.80
2023-03-11T19:16:17.500Z,1.67
2023-03-11T19:18:45.468Z,1.58
2023-03-11T19:21:14.116Z,1.90
2023-03-11T19:23:41.947Z,1.80
2023-03-11T19:26:09.439Z,2.15
2023-03-11T19:28:36.915Z,2.33
2023-03-11T19:31:05.128Z,1.62
2023-03-11T19:33:34.481Z,2.03
2023-03-11T19:36:04.500Z,2.33
2023-03-11T19:38:32.444Z,2.03
2023-03-11T19:41:01.116Z,1.90
2023-03-11T19:43:29.149Z,2.08
2023-03-11T19:45:57.143Z,2.33
2023-03-11T19:48:24.673Z,2.12
2023-03-11T19:50:52.194Z,2.30
2023-03-11T19:53:21.237Z,2.08
2023-03-11T19:55:51.352Z,1.90
2023-03-11T19:58:19.841Z,2.00
2023-03-11T20:00:47.537Z,3.00
2023-03-11T20:03:16.130Z,2.20
2023-03-11T20:05:45.283Z,2.53
2023-03-11T20:08:16.944Z,2.47
2023-03-11T20:10:46.925Z,2.60
2023-03-11T20:13:15.326Z,1.87
2023-03-11T20:15:42.903Z,2.00
2023-03-11T20:18:10.625Z,2.40
2023-03-11T20:20:39.295Z,2.40
2023-03-11T20:23:06.790Z,2.15
2023-03-11T20:25:35.039Z,2.28
2023-03-11T20:28:02.532Z,2.28
2023-03-11T20:30:30.054Z,2.37
2023-03-11T20:32:57.793Z,2.42
2023-03-11T20:35:25.304Z,2.10
2023-03-11T20:37:52.732Z,2.70
2023-03-11T20:40:21.215Z,2.67
2023-03-11T20:42:48.643Z,2.50
2023-03-11T20:45:21.380Z,2.97
2023-03-11T20:47:50.773Z,2.83
2023-03-11T20:50:18.283Z,2.47
2023-03-11T20:52:45.747Z,2.87
2023-03-11T20:55:13.643Z,2.92
2023-03-11T20:57:41.058Z,2.78
2023-03-11T21:00:11.607Z,3.05
2023-03-11T21:02:41.364Z,2.20
2023-03-11T21:05:10.331Z,2.97
2023-03-11T21:07:37.880Z,3.25
2023-03-11T21:10:08.229Z,3.17
2023-03-11T21:12:35.729Z,2.80
2023-03-11T21:15:04.440Z,2.90
2023-03-11T21:17:33.300Z,2.92
2023-03-11T21:20:01.005Z,3.50
2023-03-11T21:22:28.502Z,2.83
2023-03-11T21:24:56.146Z,3.55
2023-03-11T21:27:27.253Z,3.05
2023-03-11T21:29:58.570Z,2.70
2023-03-11T21:32:27.650Z,3.15
2023-03-11T21:34:59.169Z,2.87
2023-03-11T21:37:27.526Z,3.05
2023-03-11T21:39:55.125Z,2.60
2023-03-11T21:42:22.578Z,3.00
2023-03-11T21:44:51.410Z,2.70
2023-03-11T21:47:20.021Z,2.47
2023-03-11T21:49:47.437Z,2.92
2023-03-11T21:52:15.201Z,3.60
2023-03-11T21:54:42.759Z,3.00
2023-03-11T21:57:11.388Z,2.60
2023-03-11T21:59:39.287Z,2.40
2023-03-11T22:02:06.848Z,2.47
2023-03-11T22:04:34.524Z,2.45
2023-03-11T22:07:01.951Z,2.75
2023-03-11T22:09:29.465Z,2.80
2023-03-11T22:11:57.250Z,2.53
2023-03-11T22:14:25.088Z,2.65
2023-03-11T22:16:52.653Z,2.65
2023-03-11T22:19:20.528Z,3.30
2023-03-11T22:21:49.055Z,3.65
2023-03-11T22:24:16.512Z,3.20
2023-03-11T22:26:44.155Z,3.97
2023-03-11T22:29:13.541Z,3.55
2023-03-11T22:31:41.331Z,3.58
2023-03-11T22:34:09.039Z,4.22
2023-03-11T22:36:36.360Z,3.85
2023-03-11T22:39:04.869Z,3.40
2023-03-11T22:41:32.860Z,3.70
2023-03-11T22:44:00.383Z,3.75
2023-03-11T22:46:27.863Z,3.55
2023-03-11T22:48:55.824Z,3.40
2023-03-11T22:51:23.210Z,3.70
2023-03-11T22:53:50.536Z,3.90
2023-03-11T22:56:18.439Z,3.87
2023-03-11T22:58:46.507Z,4.15
2023-03-11T23:01:13.958Z,3.60
2023-03-11T23:03:42.472Z,3.83
2023-03-11T23:06:13.980Z,3.78
2023-03-11T23:08:41.761Z,3.72
2023-03-11T23:11:11.107Z,4.05
2023-03-11T23:13:39.588Z,3.70
2023-03-11T23:16:18.906Z,3.50
2023-03-11T23:18:47.723Z,3.33
2023-03-11T23:21:16.843Z,3.42
2023-03-11T23:23:45.014Z,3.45
2023-03-11T23:26:13.330Z,3.83
2023-03-11T23:28:41.617Z,3.40
2023-03-11T23:31:10.770Z,3.05
2023-03-11T23:33:38.482Z,3.08
2023-03-11T23:36:09.477Z,3.55
2023-03-11T23:38:37.685Z,3.08
2023-03-11T23:41:07.149Z,3.45
2023-03-11T23:43:34.927Z,3.10
2023-03-11T23:46:02.378Z,3.33
2023-03-11T23:48:29.872Z,2.95
2023-03-11T23:50:58.061Z,3.55
2023-03-11T23:53:26.633Z,2.80
2023-03-11T23:55:54.543Z,3.30
2023-03-11T23:58:22.515Z,2.80
